Time;durP1;ratioP1;P1;durP2;ratioP2;P2;SDS_P1;SDS_P2;PMS_P1;PMS_P2;Temp;Humidity;BMP_temperature;BMP_pressure;BME280_temperature;BME280_humidity;BME280_pressure;Samples;Min_cycle;Max_cycle;Signal;HPM_P1;HPM_P2
2022/08/14 00:02:03;;;;;;;9.07;3.78;;;21.90;72.70;;;;;;5036571;28;20170;-47
2022/08/14 00:04:34;;;;;;;5.38;3.53;;;21.90;72.90;;;;;;5048008;28;20699;-52
2022/08/14 00:06:59;;;;;;;4.05;3.13;;;21.80;73.20;;;;;;5061725;28;20066;-48
2022/08/14 00:09:25;;;;;;;6.00;3.20;;;21.70;73.50;;;;;;5055385;28;20501;-46
2022/08/14 00:11:51;;;;;;;7.55;3.50;;;21.70;73.40;;;;;;5049943;28;20112;-49
2022/08/14 00:14:17;;;;;;;4.55;2.85;;;21.60;73.90;;;;;;5067365;28;20024;-47
2022/08/14 00:16:43;;;;;;;4.55;3.22;;;21.60;74.30;;;;;;5060687;28;20457;-48
2022/08/14 00:19:09;;;;;;;8.60;3.60;;;21.50;74.40;;;;;;5049092;28;20041;-52
2022/08/14 00:21:36;;;;;;;4.75;3.25;;;21.50;74.90;;;;;;5050613;28;20033;-51
2022/08/14 00:24:03;;;;;;;6.00;3.92;;;21.40;74.80;;;;;;5051191;28;20438;-51
2022/08/14 00:26:29;;;;;;;4.78;3.67;;;21.40;75.30;;;;;;5066520;28;20036;-48
2022/08/14 00:28:55;;;;;;;5.35;3.53;;;21.40;75.60;;;;;;5066878;28;20590;-51
2022/08/14 00:31:22;;;;;;;5.25;3.92;;;21.40;75.80;;;;;;5062695;28;20064;-47
2022/08/14 00:33:48;;;;;;;6.30;3.53;;;21.40;76.10;;;;;;5063679;28;20489;-52
2022/08/14 00:36:15;;;;;;;6.07;3.53;;;21.40;76.20;;;;;;5067117;28;20056;-47
2022/08/14 00:38:42;;;;;;;5.97;3.45;;;21.40;76.30;;;;;;5067289;28;20454;-46
2022/08/14 00:41:08;;;;;;;6.05;4.22;;;21.40;76.40;;;;;;5039723;28;20071;-50
2022/08/14 00:43:35;;;;;;;4.78;3.45;;;21.40;76.70;;;;;;5067043;28;20041;-48
2022/08/14 00:46:09;;;;;;;4.75;3.47;;;21.40;76.90;;;;;;5058825;28;20017;-50
2022/08/14 00:48:36;;;;;;;6.43;3.80;;;21.40;77.10;;;;;;5050902;28;20493;-51
2022/08/14 00:51:11;;;;;;;5.88;3.72;;;21.40;77.30;;;;;;5064960;28;20036;-48
2022/08/14 00:53:38;;;;;;;7.03;3.72;;;21.40;77.50;;;;;;5051523;28;20024;-48
2022/08/14 00:56:04;;;;;;;4.30;3.60;;;21.40;77.50;;;;;;5089991;28;20024;-47
2022/08/14 00:58:30;;;;;;;6.65;3.47;;;21.40;77.40;;;;;;5071678;28;20028;-47
2022/08/14 01:01:08;;;;;;;5.22;3.53;;;21.40;77.30;;;;;;5061576;28;20031;-47
2022/08/14 01:03:36;;;;;;;6.35;3.92;;;21.40;77.70;;;;;;5055234;28;20090;-47
2022/08/14 01:06:03;;;;;;;4.80;3.58;;;21.40;77.80;;;;;;5058306;28;20026;-50
2022/08/14 01:08:30;;;;;;;7.20;3.97;;;21.50;77.70;;;;;;5070981;28;20067;-48
2022/08/14 01:10:58;;;;;;;4.82;3.60;;;21.50;78.00;;;;;;5042138;28;20127;-46
2022/08/14 01:13:27;;;;;;;7.35;3.92;;;21.50;77.40;;;;;;5052859;28;20350;-51
2022/08/14 01:15:56;;;;;;;4.72;3.45;;;21.60;77.20;;;;;;5057455;28;20060;-47
2022/08/14 01:21:10;;;;;;;7.18;4.10;;;21.60;77.20;;;;;;5066033;28;20545;-50
2022/08/14 01:23:39;;;;;;;5.93;3.67;;;21.70;77.10;;;;;;5071447;28;20043;-50
2022/08/14 01:26:06;;;;;;;6.60;4.45;;;21.70;77.00;;;;;;5040116;28;20076;-47
2022/08/14 01:28:35;;;;;;;5.82;4.20;;;21.80;77.10;;;;;;5070299;28;20029;-46
2022/08/14 01:31:04;;;;;;;6.35;3.95;;;21.80;77.20;;;;;;5068565;28;20021;-47
2022/08/14 01:33:30;;;;;;;5.00;3.80;;;21.80;77.50;;;;;;5057980;28;20343;-47
2022/08/14 01:36:00;;;;;;;9.27;4.10;;;21.80;77.70;;;;;;5033326;28;20043;-46
2022/08/14 01:38:35;;;;;;;9.05;5.10;;;21.80;78.00;;;;;;5033949;28;20328;-47
2022/08/14 01:41:08;;;;;;;5.75;4.03;;;21.80;77.80;;;;;;5062179;28;20063;-49
2022/08/14 01:43:52;;;;;;;5.88;3.80;;;21.80;77.30;;;;;;5069441;28;20068;-49
2022/08/14 01:46:25;;;;;;;7.03;4.13;;;21.80;77.50;;;;;;5067466;28;20091;-47
2022/08/14 01:48:51;;;;;;;5.45;4.22;;;21.90;77.00;;;;;;5059298;28;20439;-50
2022/08/14 01:51:21;;;;;;;6.85;3.90;;;21.80;77.60;;;;;;5054248;28;20047;-48
2022/08/14 01:53:50;;;;;;;4.80;3.80;;;21.80;77.50;;;;;;5070216;28;20032;-48
2022/08/14 01:56:17;;;;;;;7.72;3.97;;;21.80;77.50;;;;;;5065921;28;20020;-50
2022/08/14 01:58:48;;;;;;;4.47;3.67;;;21.70;77.80;;;;;;5069021;28;20021;-48
2022/08/14 02:01:19;;;;;;;5.50;4.22;;;21.70;78.10;;;;;;5062513;28;20020;-48
2022/08/14 02:03:45;;;;;;;6.68;3.47;;;21.60;78.10;;;;;;5046824;28;20121;-48
2022/08/14 02:06:12;;;;;;;4.63;3.85;;;21.60;78.30;;;;;;5066043;28;20040;-47
2022/08/14 02:08:41;;;;;;;5.38;4.18;;;21.60;78.30;;;;;;5051949;28;20081;-47
2022/08/14 02:11:16;;;;;;;9.27;4.77;;;21.60;78.10;;;;;;5068863;28;20041;-47
2022/08/14 02:13:43;;;;;;;7.53;4.32;;;21.50;78.20;;;;;;5051260;28;20060;-47
2022/08/14 02:16:15;;;;;;;6.90;3.78;;;21.50;78.10;;;;;;5067962;28;20028;-50
2022/08/14 02:18:41;;;;;;;4.75;3.38;;;21.50;78.70;;;;;;5047984;28;20033;-48
2022/08/14 02:21:07;;;;;;;5.47;3.83;;;21.50;78.60;;;;;;5041663;28;20032;-48
2022/08/14 02:23:34;;;;;;;7.43;4.20;;;21.50;78.80;;;;;;5070781;28;20108;-49
2022/08/14 02:26:03;;;;;;;7.72;4.25;;;21.40;78.90;;;;;;5057234;28;20033;-47
2022/08/14 02:28:30;;;;;;;;;;;21.40;79.10;;;;;;5040851;28;20036;-47
2022/08/14 02:30:58;;;;;;;4.88;4.18;;;21.40;79.10;;;;;;5067531;28;20325;-48
2022/08/14 02:33:26;;;;;;;5.90;4.68;;;21.40;79.00;;;;;;5068806;28;20017;-49
2022/08/14 02:35:54;;;;;;;5.50;3.85;;;21.40;79.30;;;;;;5053325;28;20042;-47
2022/08/14 02:38:20;;;;;;;6.18;4.40;;;21.40;79.50;;;;;;5050339;28;20445;-49
2022/08/14 02:40:47;;;;;;;7.25;4.68;;;21.40;79.70;;;;;;5065291;28;20021;-47
2022/08/14 02:43:13;;;;;;;6.90;4.35;;;21.30;79.60;;;;;;5057587;28;20032;-48
2022/08/14 02:45:39;;;;;;;6.10;5.13;;;21.30;79.40;;;;;;5044736;28;20032;-50
2022/08/14 02:48:06;;;;;;;6.63;4.30;;;21.40;79.30;;;;;;5060438;28;20036;-47
2022/08/14 02:50:33;;;;;;;6.80;4.82;;;21.40;79.70;;;;;;5058027;28;20040;-47
2022/08/14 02:53:01;;;;;;;6.70;4.07;;;21.30;79.90;;;;;;5061732;28;20029;-50
2022/08/14 02:55:30;;;;;;;6.90;4.57;;;21.30;80.20;;;;;;5062927;28;20036;-49
2022/08/14 02:57:56;;;;;;;8.65;4.70;;;21.30;80.00;;;;;;5055061;28;20072;-50
2022/08/14 03:00:22;;;;;;;5.30;4.80;;;21.30;80.10;;;;;;5067065;28;20767;-50
2022/08/14 03:02:49;;;;;;;6.35;4.82;;;21.20;79.90;;;;;;5068360;28;20343;-49
2022/08/14 03:05:16;;;;;;;6.57;4.15;;;21.30;79.90;;;;;;5066893;28;20024;-50
2022/08/14 03:07:43;;;;;;;6.63;4.80;;;21.30;79.90;;;;;;5031839;28;20114;-52
2022/08/14 03:10:09;;;;;;;9.02;4.43;;;21.20;80.30;;;;;;5023010;28;20249;-50
2022/08/14 03:12:35;;;;;;;5.20;4.22;;;21.20;80.20;;;;;;5030312;28;20024;-50
2022/08/14 03:15:07;;;;;;;10.27;4.85;;;21.20;80.10;;;;;;5050430;28;20021;-52
2022/08/14 03:17:34;;;;;;;5.85;3.95;;;21.10;80.30;;;;;;5049731;28;20033;-49
2022/08/14 03:19:59;;;;;;;7.22;4.30;;;21.10;80.20;;;;;;5021388;28;20037;-50
2022/08/14 03:22:28;;;;;;;5.25;3.90;;;21.00;80.40;;;;;;5064276;28;20695;-47
2022/08/14 03:24:53;;;;;;;4.75;4.13;;;21.00;80.30;;;;;;5068075;28;20450;-49
2022/08/14 03:27:19;;;;;;;4.85;4.35;;;21.00;80.60;;;;;;5043093;28;20032;-49
2022/08/14 03:29:45;;;;;;;5.13;4.38;;;21.00;80.60;;;;;;5068095;28;20047;-47
2022/08/14 03:32:11;;;;;;;5.45;4.85;;;20.90;80.20;;;;;;5057695;28;20103;-47
2022/08/14 03:34:37;;;;;;;5.90;4.25;;;20.90;80.10;;;;;;5053757;28;20013;-47
2022/08/14 03:37:03;;;;;;;7.15;4.65;;;20.90;80.40;;;;;;5059573;28;20354;-48
2022/08/14 03:39:28;;;;;;;6.72;4.22;;;20.90;80.00;;;;;;5049518;28;20025;-51
2022/08/14 03:41:56;;;;;;;6.43;4.35;;;20.80;80.40;;;;;;5054651;28;20104;-48
2022/08/14 03:44:24;;;;;;;6.93;4.80;;;20.80;80.60;;;;;;5067437;28;20079;-49
2022/08/14 03:46:53;;;;;;;6.05;4.50;;;20.80;80.60;;;;;;5066592;28;20027;-50
2022/08/14 03:49:25;;;;;;;8.77;5.13;;;20.70;80.70;;;;;;5058995;28;20063;-54
2022/08/14 03:51:51;;;;;;;6.35;4.55;;;20.70;80.80;;;;;;5055577;28;20421;-50
2022/08/14 03:54:20;;;;;;;7.85;4.93;;;20.70;80.80;;;;;;5050508;28;20120;-47
2022/08/14 03:56:45;;;;;;;6.20;5.43;;;20.70;80.50;;;;;;5051010;28;20032;-48
2022/08/14 03:59:12;;;;;;;6.05;4.72;;;20.80;80.50;;;;;;5066798;28;20269;-50
2022/08/14 04:01:39;;;;;;;6.03;5.00;;;20.80;80.50;;;;;;5065813;28;20020;-49
2022/08/14 04:04:06;;;;;;;7.78;5.28;;;20.90;80.30;;;;;;5067292;28;20033;-47
2022/08/14 04:06:36;;;;;;;7.80;5.32;;;20.90;80.20;;;;;;5050137;28;20039;-47
2022/08/14 04:09:06;;;;;;;4.78;4.28;;;21.00;80.10;;;;;;5050346;28;20025;-49
2022/08/14 04:11:34;;;;;;;6.10;4.25;;;21.00;80.00;;;;;;5065081;28;20409;-52
2022/08/14 04:14:01;;;;;;;7.55;5.10;;;21.10;79.90;;;;;;5067029;28;20442;-48
2022/08/14 04:16:27;;;;;;;5.97;4.65;;;21.10;79.90;;;;;;5063120;28;20044;-51
2022/08/14 04:18:55;;;;;;;5.18;4.18;;;21.20;79.70;;;;;;5048291;28;20033;-51
2022/08/14 04:21:24;;;;;;;7.50;4.75;;;21.20;79.50;;;;;;5033669;28;20033;-51
2022/08/14 04:23:52;;;;;;;6.88;4.72;;;21.30;79.30;;;;;;5039950;28;20040;-52
2022/08/14 04:26:21;;;;;;;5.85;4.45;;;21.30;79.30;;;;;;5071492;28;20103;-48
2022/08/14 04:28:48;;;;;;;5.10;4.32;;;21.30;79.20;;;;;;5071281;28;20080;-47
2022/08/14 04:31:17;;;;;;;7.43;4.10;;;21.30;79.20;;;;;;5069497;28;20024;-47
2022/08/14 04:33:42;;;;;;;4.82;4.00;;;21.30;78.60;;;;;;5072331;28;20039;-49
2022/08/14 04:36:10;;;;;;;8.95;5.05;;;21.30;78.20;;;;;;5053164;28;20017;-49
2022/08/14 04:44:07;;;;;;;5.82;4.00;;;21.40;78.10;;;;;;5071182;28;20113;-49
2022/08/14 04:46:34;;;;;;;8.05;4.28;;;21.40;78.00;;;;;;5053252;28;20036;-51
2022/08/14 04:49:02;;;;;;;6.20;4.28;;;21.40;77.90;;;;;;5069634;28;20476;-49
2022/08/14 04:51:29;;;;;;;6.55;4.22;;;21.40;78.00;;;;;;5056399;28;20062;-48
2022/08/14 04:53:58;;;;;;;7.22;4.53;;;21.40;78.20;;;;;;5055111;28;20025;-49
2022/08/14 04:56:25;;;;;;;5.80;4.57;;;21.40;78.20;;;;;;5056732;28;20023;-49
2022/08/14 04:58:59;;;;;;;7.03;4.40;;;21.40;78.10;;;;;;5054299;28;20043;-47
2022/08/14 05:01:26;;;;;;;4.43;4.00;;;21.40;78.00;;;;;;5051672;28;20131;-51
2022/08/14 05:03:53;;;;;;;8.18;5.20;;;21.40;78.00;;;;;;5066245;28;20035;-52
2022/08/14 05:06:21;;;;;;;4.68;4.18;;;21.50;77.90;;;;;;5062494;28;20032;-48
2022/08/14 05:08:48;;;;;;;5.47;4.78;;;21.50;77.90;;;;;;5068201;28;20364;-50
2022/08/14 05:11:14;;;;;;;7.72;4.68;;;21.50;77.90;;;;;;5055657;28;20064;-47
2022/08/14 05:13:40;;;;;;;6.30;4.30;;;21.60;77.90;;;;;;5052722;28;20024;-50
2022/08/14 05:16:06;;;;;;;7.97;4.68;;;21.60;78.10;;;;;;5067745;28;20036;-54
2022/08/14 05:18:36;;;;;;;4.85;4.35;;;21.60;78.20;;;;;;5052218;28;20439;-48
2022/08/14 05:21:09;;;;;;;6.30;4.70;;;21.70;78.50;;;;;;5058882;28;20119;-46
2022/08/14 05:23:38;;;;;;;5.78;4.85;;;21.70;78.60;;;;;;5071848;28;20024;-50
2022/08/14 05:26:11;;;;;;;5.35;4.40;;;21.80;78.70;;;;;;5056316;28;20078;-46
2022/08/14 05:28:44;;;;;;;6.28;4.35;;;21.80;78.70;;;;;;5036393;28;20033;-49
2022/08/14 05:31:12;;;;;;;6.25;5.05;;;21.80;78.90;;;;;;5068968;28;20032;-47
2022/08/14 05:33:37;;;;;;;10.27;5.00;;;21.80;78.90;;;;;;5069031;28;20025;-51
2022/08/14 05:36:11;;;;;;;4.85;4.32;;;21.80;78.90;;;;;;5038035;28;20020;-47
2022/08/14 05:38:39;;;;;;;7.10;4.18;;;21.80;79.10;;;;;;5069872;28;20091;-50
2022/08/14 05:41:11;;;;;;;5.97;4.18;;;21.80;79.60;;;;;;5060422;28;20040;-50
2022/08/14 05:43:38;;;;;;;6.88;4.85;;;21.80;80.00;;;;;;5048926;28;20060;-48
2022/08/14 05:46:04;;;;;;;7.93;5.00;;;21.70;80.30;;;;;;5068999;28;20334;-49
2022/08/14 05:48:30;;;;;;;5.95;4.93;;;21.60;80.40;;;;;;5069723;28;20404;-50
2022/08/14 05:50:56;;;;;;;6.68;4.75;;;21.60;80.50;;;;;;5065418;28;20036;-47
2022/08/14 05:53:26;;;;;;;5.13;4.20;;;21.60;80.80;;;;;;5066183;28;20057;-48
2022/08/14 05:55:54;;;;;;;5.50;4.75;;;21.60;80.80;;;;;;5065496;28;20024;-51
2022/08/14 05:58:20;;;;;;;8.60;5.40;;;21.70;80.70;;;;;;5051303;28;20052;-51
2022/08/14 06:00:46;;;;;;;4.88;4.38;;;21.70;80.40;;;;;;5040600;28;20040;-47
2022/08/14 06:03:15;;;;;;;8.77;5.63;;;21.80;80.40;;;;;;5033428;28;20032;-51
2022/08/14 06:05:42;;;;;;;6.57;4.78;;;21.90;80.60;;;;;;5051943;28;20101;-49
2022/08/14 06:08:18;;;;;;;5.45;4.90;;;21.90;80.50;;;;;;5050796;28;20060;-49
2022/08/14 06:10:44;;;;;;;6.50;4.25;;;22.00;80.10;;;;;;5061552;28;20028;-50
2022/08/14 06:13:11;;;;;;;5.13;4.60;;;22.00;80.10;;;;;;5062486;28;20047;-50
2022/08/14 06:15:36;;;;;;;5.30;4.80;;;22.10;79.50;;;;;;5059090;28;20025;-49
2022/08/14 06:18:05;;;;;;;6.75;4.40;;;22.20;79.00;;;;;;5053591;28;20040;-47
2022/08/14 06:20:30;;;;;;;6.70;4.40;;;22.30;78.80;;;;;;5050167;28;20033;-49
2022/08/14 06:22:57;;;;;;;5.95;4.47;;;22.40;78.20;;;;;;5059352;28;20086;-48
2022/08/14 06:25:23;;;;;;;6.63;4.28;;;22.50;77.60;;;;;;5064769;28;20065;-48
2022/08/14 06:27:49;;;;;;;6.07;5.38;;;22.50;77.20;;;;;;5046191;28;20029;-48
2022/08/14 06:30:20;;;;;;;6.72;4.88;;;22.60;76.90;;;;;;5067171;28;20044;-47
2022/08/14 06:32:46;;;;;;;8.57;4.57;;;22.70;77.10;;;;;;5065756;28;20028;-48
2022/08/14 06:35:17;;;;;;;6.68;5.05;;;22.70;76.60;;;;;;5068262;28;20043;-47
2022/08/14 06:37:54;;;;;;;5.30;4.32;;;22.70;76.30;;;;;;5066529;28;20062;-47
2022/08/14 06:40:24;;;;;;;6.15;4.20;;;22.80;76.40;;;;;;5067269;28;20111;-47
2022/08/14 06:42:50;;;;;;;6.70;4.50;;;22.90;75.80;;;;;;5050058;28;20032;-48
2022/08/14 06:45:16;;;;;;;8.52;4.63;;;22.90;75.30;;;;;;5064281;28;20054;-49
2022/08/14 06:47:43;;;;;;;9.73;4.70;;;22.90;75.40;;;;;;5068898;28;20399;-48
2022/08/14 06:50:15;;;;;;;7.70;4.10;;;23.00;75.20;;;;;;5065872;28;20051;-49
2022/08/14 06:52:45;;;;;;;7.22;4.32;;;22.90;75.10;;;;;;5049239;28;20105;-47
2022/08/14 06:55:12;;;;;;;5.73;3.77;;;23.00;74.90;;;;;;5063393;28;20081;-49
2022/08/14 06:57:44;;;;;;;5.68;3.72;;;23.00;74.90;;;;;;5044496;28;20023;-50
2022/08/14 07:00:18;;;;;;;6.05;4.32;;;23.00;74.50;;;;;;5042203;28;20028;-49
2022/08/14 07:05:47;;;;;;;7.47;4.63;;;22.90;73.10;;;;;;5054718;28;20036;-48
2022/08/14 07:08:21;;;;;;;4.72;3.85;;;22.90;72.40;;;;;;5049217;28;20174;-49
2022/08/14 07:10:52;;;;;;;7.97;4.45;;;22.90;72.40;;;;;;5046909;28;20032;-48
2022/08/14 07:13:19;;;;;;;6.20;4.78;;;22.90;72.70;;;;;;5030418;28;20024;-52
2022/08/14 07:15:48;;;;;;;6.22;3.95;;;22.90;72.60;;;;;;5043243;28;20102;-50
2022/08/14 07:18:19;;;;;;;8.05;4.07;;;23.00;72.30;;;;;;5046482;28;20028;-49
2022/08/14 07:20:46;;;;;;;5.45;3.95;;;23.00;71.80;;;;;;5061870;28;20030;-48
2022/08/14 07:23:14;;;;;;;8.32;3.95;;;23.10;71.20;;;;;;5049800;28;20046;-49
2022/08/14 07:25:42;;;;;;;6.57;4.47;;;23.10;71.30;;;;;;5038362;28;20083;-48
2022/08/14 07:28:15;;;;;;;6.15;4.05;;;23.10;71.90;;;;;;5065613;28;20028;-51
2022/08/14 07:30:43;;;;;;;6.47;3.90;;;23.10;71.10;;;;;;5065582;28;20028;-48
2022/08/14 07:33:12;;;;;;;5.15;4.00;;;23.20;71.60;;;;;;5068195;28;20033;-49
2022/08/14 07:35:40;;;;;;;7.47;4.18;;;23.10;71.20;;;;;;5064296;28;20021;-50
2022/08/14 07:38:07;;;;;;;4.80;3.90;;;23.10;71.70;;;;;;5068236;28;20046;-48
2022/08/14 07:40:33;;;;;;;5.80;4.15;;;23.10;71.40;;;;;;5049739;28;20049;-49
2022/08/14 07:43:02;;;;;;;7.55;4.50;;;23.00;71.70;;;;;;5064129;28;20174;-48
2022/08/14 07:45:29;;;;;;;4.95;4.15;;;23.10;71.20;;;;;;5040771;28;20044;-49
2022/08/14 07:47:56;;;;;;;6.18;4.95;;;23.10;71.40;;;;;;5048468;28;20033;-49
2022/08/14 07:50:26;;;;;;;4.88;4.03;;;23.10;71.40;;;;;;5040523;28;20044;-49
2022/08/14 07:52:52;;;;;;;5.35;4.60;;;23.10;71.30;;;;;;5025060;28;20113;-48
2022/08/14 07:55:20;;;;;;;5.72;4.78;;;23.20;71.60;;;;;;5046054;28;20029;-48
2022/08/14 07:57:47;;;;;;;5.90;4.55;;;23.30;71.30;;;;;;5027698;28;20138;-48
2022/08/14 08:00:21;;;;;;;5.45;4.35;;;23.30;71.60;;;;;;5042847;28;20496;-48
2022/08/14 08:02:53;;;;;;;7.07;4.68;;;23.30;71.60;;;;;;5028706;28;20461;-49
2022/08/14 08:05:40;;;;;;;6.70;4.47;;;23.40;71.50;;;;;;5029024;28;20036;-51
2022/08/14 08:08:08;;;;;;;7.00;5.18;;;23.40;71.00;;;;;;5030522;28;20343;-48
2022/08/14 08:10:41;;;;;;;6.22;4.63;;;23.40;70.50;;;;;;5045507;28;20034;-48
2022/08/14 08:13:27;;;;;;;5.50;4.75;;;23.40;71.00;;;;;;5009145;28;20057;-51
2022/08/14 08:15:55;;;;;;;6.30;5.18;;;23.50;71.00;;;;;;5028863;28;20033;-52
2022/08/14 08:18:22;;;;;;;7.90;4.78;;;23.50;70.50;;;;;;5035488;28;20047;-50
2022/08/14 08:20:52;;;;;;;7.43;5.32;;;23.50;70.10;;;;;;5004663;28;20037;-52
2022/08/14 08:23:28;;;;;;;5.88;4.72;;;23.60;70.50;;;;;;5013060;28;20091;-52
2022/08/14 08:25:57;;;;;;;7.13;4.93;;;23.60;70.50;;;;;;5033044;28;20068;-48
2022/08/14 08:28:25;;;;;;;6.97;4.97;;;23.70;70.90;;;;;;5035835;28;20038;-51
2022/08/14 08:30:57;;;;;;;5.30;4.80;;;23.90;71.00;;;;;;5040503;28;20029;-53
2022/08/14 08:33:27;;;;;;;5.07;4.20;;;24.00;70.80;;;;;;5027940;28;20029;-50
2022/08/14 08:35:59;;;;;;;4.97;4.35;;;24.20;70.80;;;;;;5045484;28;20428;-52
2022/08/14 08:38:26;;;;;;;6.45;4.55;;;24.40;72.10;;;;;;5027141;28;20422;-51
2022/08/14 08:40:55;;;;;;;7.30;4.80;;;24.60;70.10;;;;;;5045799;28;20024;-55
2022/08/14 08:43:40;;;;;;;6.17;4.60;;;24.70;69.30;;;;;;5012551;28;20029;-53
2022/08/14 08:46:24;;;;;;;5.07;4.30;;;24.90;67.90;;;;;;5056062;28;20301;-48
2022/08/14 08:48:53;;;;;;;5.38;4.68;;;24.90;67.90;;;;;;5060670;28;20500;-49
2022/08/14 08:51:38;;;;;;;7.20;4.72;;;25.10;68.10;;;;;;5019834;28;20087;-50
2022/08/14 08:54:13;;;;;;;5.25;4.30;;;25.30;68.30;;;;;;5039598;28;20125;-50
2022/08/14 08:56:45;;;;;;;4.97;4.45;;;25.40;66.60;;;;;;5059632;28;20397;-52
2022/08/14 08:59:31;;;;;;;7.72;5.15;;;25.50;67.00;;;;;;5067342;28;20040;-49
2022/08/14 09:02:09;;;;;;;5.18;4.68;;;25.80;67.30;;;;;;5063958;28;20471;-49
2022/08/14 09:04:40;;;;;;;6.85;4.70;;;25.90;65.50;;;;;;5065354;28;20087;-56
2022/08/14 09:07:07;;;;;;;8.25;4.43;;;26.00;65.00;;;;;;5053509;28;20466;-54
2022/08/14 09:09:50;;;;;;;5.13;4.63;;;25.90;65.00;;;;;;5030741;28;20029;-50
2022/08/14 09:12:16;;;;;;;7.57;5.18;;;26.20;64.80;;;;;;5054875;28;20037;-52
2022/08/14 09:14:42;;;;;;;5.07;4.55;;;26.40;64.50;;;;;;5042482;28;20025;-49
2022/08/14 09:17:10;;;;;;;5.18;4.43;;;26.60;64.20;;;;;;5054633;28;20112;-53
2022/08/14 09:19:38;;;;;;;5.43;4.88;;;26.90;64.70;;;;;;5066583;28;20025;-50
2022/08/14 09:22:09;;;;;;;6.30;5.15;;;27.30;64.60;;;;;;5066752;28;20039;-50
2022/08/14 09:24:37;;;;;;;6.22;4.82;;;27.70;64.10;;;;;;5053267;28;20032;-48
2022/08/14 09:27:04;;;;;;;6.05;5.10;;;27.90;61.80;;;;;;5063652;28;20075;-49
2022/08/14 09:29:33;;;;;;;5.35;4.38;;;27.80;63.10;;;;;;5068896;28;20029;-48
2022/08/14 09:32:03;;;;;;;;;;;27.60;62.80;;;;;;5060915;28;20040;-48
2022/08/14 09:35:06;;;;;;;7.55;4.22;;;27.60;63.20;;;;;;5035147;28;19998;-48
2022/08/14 09:37:53;;;;;;;8.70;5.32;;;27.50;62.80;;;;;;5053804;28;20033;-53
2022/08/14 09:40:49;;;;;;;5.90;4.38;;;27.20;62.30;;;;;;5050675;28;20072;-49
2022/08/14 09:43:52;;;;;;;6.78;4.35;;;26.90;64.20;;;;;;5029169;28;20037;-51
2022/08/14 09:46:26;;;;;;;4.82;3.67;;;26.80;64.10;;;;;;5024217;28;20140;-50
2022/08/14 09:49:04;;;;;;;5.60;4.95;;;26.70;66.60;;;;;;5046492;28;20039;-51
2022/08/14 09:51:39;;;;;;;6.85;3.97;;;26.80;65.80;;;;;;5042031;28;20111;-51
2022/08/14 09:54:09;;;;;;;5.90;4.35;;;26.80;67.00;;;;;;5042692;28;20466;-49
2022/08/14 09:56:49;;;;;;;6.40;4.45;;;26.90;67.30;;;;;;5038208;28;20041;-51
2022/08/14 09:59:21;;;;;;;7.90;4.22;;;26.90;64.40;;;;;;5041374;28;20080;-49
2022/08/14 10:01:49;;;;;;;5.43;4.30;;;27.20;65.50;;;;;;5039961;28;20043;-48
2022/08/14 10:04:23;;;;;;;5.07;4.10;;;27.30;64.80;;;;;;5031569;28;20033;-53
2022/08/14 10:06:53;;;;;;;6.07;4.75;;;27.40;65.50;;;;;;5029941;28;20123;-49
2022/08/14 10:09:19;;;;;;;6.45;4.22;;;27.30;64.40;;;;;;5042208;28;20098;-49
2022/08/14 10:11:57;;;;;;;5.22;4.53;;;27.70;65.50;;;;;;5031183;28;20401;-53
2022/08/14 10:14:31;;;;;;;8.23;4.70;;;27.90;65.20;;;;;;5040737;28;20104;-49
2022/08/14 10:16:57;;;;;;;7.50;4.35;;;27.90;65.30;;;;;;5031118;28;20021;-49
2022/08/14 10:19:27;;;;;;;5.63;4.53;;;28.00;64.90;;;;;;5027491;28;20119;-51
2022/08/14 10:21:56;;;;;;;6.40;4.00;;;28.40;64.90;;;;;;5046637;28;20387;-49
2022/08/14 10:24:31;;;;;;;6.53;4.55;;;28.70;63.50;;;;;;5048155;28;20033;-51
2022/08/14 10:27:00;;;;;;;7.75;4.38;;;28.90;64.10;;;;;;5048451;28;20037;-49
2022/08/14 10:29:35;;;;;;;;;;;29.10;60.90;;;;;;5020913;28;20120;-48
2022/08/14 10:32:02;;;;;;;4.95;4.22;;;29.30;60.60;;;;;;5017414;28;19913;-51
2022/08/14 10:34:36;;;;;;;5.70;4.70;;;29.40;60.00;;;;;;5033441;28;20029;-50
2022/08/14 10:37:08;;;;;;;8.68;5.28;;;29.60;58.00;;;;;;5050481;28;20661;-48
2022/08/14 10:39:37;;;;;;;5.63;4.88;;;29.70;58.00;;;;;;5038196;28;20017;-51
2022/08/14 10:42:10;;;;;;;6.25;4.68;;;29.80;59.70;;;;;;5048884;28;20029;-49
2022/08/14 10:44:48;;;;;;;6.38;4.75;;;29.80;59.40;;;;;;5043325;28;20060;-50
2022/08/14 10:47:17;;;;;;;8.15;5.07;;;29.70;57.00;;;;;;5066394;28;20024;-49
2022/08/14 10:49:55;;;;;;;4.85;4.38;;;29.60;61.20;;;;;;5058332;28;20408;-50
2022/08/14 10:52:24;;;;;;;5.90;4.93;;;29.90;57.00;;;;;;5055155;28;20036;-52
2022/08/14 10:54:50;;;;;;;7.85;4.85;;;29.80;57.80;;;;;;5035310;28;20029;-48
2022/08/14 10:57:46;;;;;;;6.80;5.15;;;29.80;60.20;;;;;;5052359;28;20035;-51
2022/08/14 11:00:17;;;;;;;8.23;5.50;;;29.80;58.20;;;;;;5066391;28;20032;-48
2022/08/14 11:02:46;;;;;;;7.95;4.75;;;29.40;57.40;;;;;;5069088;28;20035;-49
2022/08/14 11:05:13;;;;;;;6.40;4.47;;;29.50;58.30;;;;;;5061606;28;20028;-49
2022/08/14 11:08:01;;;;;;;7.32;4.90;;;29.40;58.30;;;;;;5050725;28;20492;-50
2022/08/14 11:10:49;;;;;;;5.73;4.67;;;29.40;59.70;;;;;;5066731;28;20123;-48
2022/08/14 11:13:20;;;;;;;6.07;4.78;;;29.40;58.10;;;;;;5065105;28;20067;-48
2022/08/14 11:15:50;;;;;;;4.90;4.32;;;29.30;59.40;;;;;;5060078;28;20060;-48
2022/08/14 11:18:18;;;;;;;6.43;4.78;;;29.10;57.80;;;;;;5067821;28;20382;-49
2022/08/14 11:20:53;;;;;;;9.00;4.97;;;29.30;59.30;;;;;;5064041;28;20518;-51
2022/08/14 11:23:30;;;;;;;7.30;5.15;;;29.00;58.50;;;;;;5067012;28;20080;-52
2022/08/14 11:25:59;;;;;;;6.18;5.15;;;28.90;57.90;;;;;;5065901;28;20055;-52
2022/08/14 11:28:27;;;;;;;;;;;28.80;58.50;;;;;;5066183;28;20024;-48
2022/08/14 11:30:57;;;;;;;6.40;5.80;;;28.80;60.80;;;;;;5047009;28;19916;-49
2022/08/14 11:33:33;;;;;;;11.00;5.75;;;28.70;56.90;;;;;;5049264;28;20028;-50
2022/08/14 11:36:05;;;;;;;7.55;5.60;;;28.60;59.40;;;;;;5053766;28;20032;-49
2022/08/14 11:38:44;;;;;;;6.32;5.10;;;28.90;60.80;;;;;;5031410;28;20354;-49
2022/08/14 11:41:14;;;;;;;;;;;28.90;57.80;;;;;;5040866;28;20033;-48
2022/08/14 11:43:46;;;;;;;7.85;5.10;;;28.90;59.40;;;;;;5057097;28;19963;-48
2022/08/14 11:46:15;;;;;;;6.18;5.57;;;28.90;61.90;;;;;;5055148;28;20021;-51
2022/08/14 11:48:49;;;;;;;6.50;5.47;;;29.00;59.80;;;;;;5039586;28;20032;-49
2022/08/14 11:51:24;;;;;;;5.53;4.75;;;29.10;58.50;;;;;;5053872;28;20025;-49
2022/08/14 11:53:55;;;;;;;8.90;4.85;;;29.20;58.30;;;;;;5056937;28;20039;-48
2022/08/14 11:56:22;;;;;;;7.55;4.93;;;29.10;58.70;;;;;;5040352;28;20025;-49
2022/08/14 11:58:53;;;;;;;7.53;4.82;;;29.00;61.20;;;;;;5056097;28;20442;-48
2022/08/14 12:01:28;;;;;;;9.70;5.40;;;28.70;60.80;;;;;;5055241;28;20036;-48
2022/08/14 12:04:06;;;;;;;12.18;5.53;;;28.90;62.90;;;;;;5048716;28;20518;-48
2022/08/14 12:07:06;;;;;;;5.90;4.82;;;28.70;62.30;;;;;;5039316;28;20035;-49
2022/08/14 12:09:37;;;;;;;12.50;5.60;;;28.60;62.10;;;;;;5055594;28;20036;-48
2022/08/14 12:12:16;;;;;;;8.15;4.57;;;28.50;60.20;;;;;;5036637;28;20044;-51
2022/08/14 12:14:58;;;;;;;6.07;5.47;;;28.40;63.10;;;;;;5056192;28;20034;-50
2022/08/14 12:17:30;;;;;;;9.70;6.13;;;28.40;62.70;;;;;;5056864;28;20457;-48
2022/08/14 12:20:02;;;;;;;11.65;6.07;;;28.10;61.60;;;;;;5030876;28;20270;-52
2022/08/14 12:22:45;;;;;;;5.25;4.72;;;27.90;63.30;;;;;;5052755;28;20374;-50
2022/08/14 12:25:20;;;;;;;8.32;6.35;;;27.80;65.60;;;;;;5043040;28;20058;-48
2022/08/14 12:28:09;;;;;;;7.00;5.10;;;27.80;64.60;;;;;;5044802;28;20025;-51
2022/08/14 12:30:39;;;;;;;;;;;27.70;65.50;;;;;;5053577;28;20040;-48
2022/08/14 12:33:24;;;;;;;8.48;4.80;;;27.80;67.30;;;;;;5068393;28;19904;-48
2022/08/14 12:35:57;;;;;;;6.18;4.50;;;27.80;63.70;;;;;;5055132;28;20048;-48
2022/08/14 12:38:45;;;;;;;8.82;5.63;;;27.90;65.60;;;;;;5053860;28;20108;-48
2022/08/14 12:41:13;;;;;;;8.00;5.20;;;27.90;64.40;;;;;;5062504;28;20033;-47
2022/08/14 12:43:50;;;;;;;5.97;4.72;;;27.90;65.00;;;;;;5041561;28;21659;-52
2022/08/14 12:46:24;;;;;;;7.07;4.93;;;27.80;65.70;;;;;;5054398;28;20472;-49
2022/08/14 12:48:50;;;;;;;7.60;5.57;;;27.70;64.60;;;;;;5072162;28;20061;-48
2022/08/14 12:51:20;;;;;;;7.50;5.03;;;27.80;64.70;;;;;;5063532;28;20024;-52
2022/08/14 12:53:47;;;;;;;10.32;4.75;;;27.80;64.50;;;;;;5061642;28;20311;-47
2022/08/14 12:56:17;;;;;;;9.55;4.90;;;28.00;66.00;;;;;;5051486;28;20043;-50
2022/08/14 12:59:07;;;;;;;7.15;5.63;;;28.10;65.80;;;;;;5072317;28;20012;-52
2022/08/14 13:01:35;;;;;;;7.43;4.57;;;28.10;63.60;;;;;;5062093;28;20036;-47
2022/08/14 13:04:07;;;;;;;8.05;5.35;;;28.30;65.00;;;;;;5052649;28;20443;-49
2022/08/14 13:06:37;;;;;;;6.95;5.40;;;28.20;63.90;;;;;;5070057;28;20445;-51
2022/08/14 13:09:05;;;;;;;5.35;4.80;;;28.30;65.50;;;;;;5037829;28;20339;-48
2022/08/14 13:11:43;;;;;;;5.97;5.30;;;28.30;65.60;;;;;;5048907;28;20658;-50
2022/08/14 13:14:14;;;;;;;6.70;5.50;;;28.10;64.10;;;;;;5055233;28;20386;-52
2022/08/14 13:16:43;;;;;;;8.50;5.60;;;28.20;65.40;;;;;;5062355;28;20551;-48